Time;durP1;ratioP1;P1;durP2;ratioP2;P2;SDS_P1;SDS_P2;PMS_P1;PMS_P2;Temp;Humidity;BMP_temperature;BMP_pressure;BME280_temperature;BME280_humidity;BME280_pressure;Samples;Min_cycle;Max_cycle;Signal;HPM_P1;HPM_P2
2023/06/05 00:00:54;;;;;;;3.03;2.03;;;;;;;-141.84;41.93;20653.28;5072449;28;20213;-51
2023/06/05 00:03:24;;;;;;;2.10;1.77;;;;;;;-141.84;42.10;20671.59;5065361;28;20728;-56
2023/06/05 00:05:53;;;;;;;2.17;1.87;;;;;;;-141.84;42.24;20649.22;5074869;28;20216;-56
2023/06/05 00:08:21;;;;;;;2.57;1.83;;;;;;;-141.84;42.57;20626.88;5073982;28;20649;-57
2023/06/05 00:10:50;;;;;;;3.93;2.00;;;;;;;-141.84;42.73;20606.53;5074109;28;20656;-57
2023/06/05 00:13:19;;;;;;;3.67;1.90;;;;;;;-141.84;43.03;20614.66;5074378;28;20205;-57
2023/06/05 00:15:49;;;;;;;2.50;1.60;;;;;;;-141.84;43.04;20588.25;5074095;28;20240;-56
2023/06/05 00:18:18;;;;;;;1.83;1.50;;;;;;;-141.84;43.04;20635.00;5054553;28;20185;-55
2023/06/05 00:20:47;;;;;;;3.80;1.97;;;;;;;-141.84;42.97;20643.13;5069464;28;20758;-58
2023/06/05 00:23:15;;;;;;;3.73;1.97;;;;;;;-141.84;43.35;20610.59;5074589;28;20228;-55
2023/06/05 00:25:44;;;;;;;2.50;1.80;;;;;;;-141.84;43.47;20602.47;5074094;28;20657;-55
2023/06/05 00:28:12;;;;;;;2.40;1.90;;;;;;;-141.84;43.52;20586.22;5074018;28;20212;-55
2023/06/05 00:30:41;;;;;;;2.67;1.73;;;;;;;-141.84;43.76;20557.75;5073876;28;20200;-57
2023/06/05 00:33:11;;;;;;;2.83;1.70;;;;;;;-141.84;43.64;20586.22;5073874;28;20239;-54
2023/06/05 00:35:40;;;;;;;5.13;1.90;;;;;;;-141.84;43.65;20561.81;5057913;28;20295;-58
2023/06/05 00:38:09;;;;;;;3.13;1.90;;;;;;;-141.84;43.95;20578.09;5053882;28;20832;-55
2023/06/05 00:40:37;;;;;;;4.30;1.90;;;;;;;-141.84;43.73;20567.91;5074191;28;20205;-57
2023/06/05 00:43:06;;;;;;;2.37;2.03;;;;;;;-141.84;44.00;20561.81;5073636;28;20751;-54
2023/06/05 00:45:35;;;;;;;3.03;2.17;;;;;;;-141.84;43.73;20561.81;5073925;28;20269;-57
2023/06/05 00:48:04;;;;;;;1.70;1.60;;;;;;;-141.84;43.69;20588.25;5073543;28;20283;-59
2023/06/05 00:50:36;;;;;;;3.63;1.90;;;;;;;-141.84;44.14;20565.88;5073194;28;20258;-56
2023/06/05 00:53:06;;;;;;;3.00;1.70;;;;;;;-141.84;44.09;20571.97;5073631;28;20328;-57
2023/06/05 00:55:36;;;;;;;4.40;1.90;;;;;;;-141.84;44.59;20529.28;5073663;28;20223;-56
2023/06/05 00:58:05;;;;;;;3.00;1.70;;;;;;;-141.84;44.62;20506.94;5073131;28;20296;-58
2023/06/05 01:00:36;;;;;;;2.60;2.10;;;;;;;-141.84;45.03;20496.78;5072995;28;20200;-56
2023/06/05 01:03:08;;;;;;;3.40;2.00;;;;;;;-141.84;44.59;20539.47;5065939;28;20254;-58
2023/06/05 01:05:38;;;;;;;2.20;2.00;;;;;;;-141.84;44.69;20508.97;5071490;28;20193;-56
2023/06/05 01:08:09;;;;;;;3.17;2.00;;;;;;;-141.84;45.02;20527.25;5072584;28;20708;-55
2023/06/05 01:10:37;;;;;;;2.23;2.03;;;;;;;-141.84;44.81;20519.13;5072516;28;20204;-54
2023/06/05 01:13:16;;;;;;;2.30;2.00;;;;;;;-141.84;45.17;20521.16;5072602;28;20220;-57
2023/06/05 01:15:44;;;;;;;2.57;2.00;;;;;;;-141.84;45.14;20506.94;5073072;28;20275;-57
2023/06/05 01:18:13;;;;;;;2.77;2.10;;;;;;;-141.84;45.24;20523.19;5072989;28;20204;-56
2023/06/05 01:20:43;;;;;;;2.67;2.10;;;;;;;-141.84;45.38;20527.25;5072485;28;20285;-55
2023/06/05 01:23:13;;;;;;;2.27;2.07;;;;;;;-141.84;45.52;20488.63;5072571;28;20284;-56
2023/06/05 01:25:43;;;;;;;2.40;2.13;;;;;;;-141.84;45.94;20460.19;5072557;28;20754;-58
2023/06/05 01:28:17;;;;;;;3.40;1.97;;;;;;;-141.84;45.91;20476.44;5072617;28;20564;-56
2023/06/05 01:30:53;;;;;;;2.00;1.80;;;;;;;-141.84;45.94;20454.09;5053504;28;20269;-55
2023/06/05 01:33:30;;;;;;;2.70;1.97;;;;;;;-141.84;46.14;20447.97;5072731;28;20224;-57
2023/06/05 01:36:04;;;;;;;3.63;2.30;;;;;;;-141.84;46.28;20450.03;5053829;28;20653;-58
2023/06/05 01:38:35;;;;;;;3.93;1.87;;;;;;;-141.84;45.93;20450.03;5056379;28;20192;-58
2023/06/05 01:41:05;;;;;;;2.53;2.13;;;;;;;-141.84;46.10;20452.06;5072922;28;20239;-58
2023/06/05 01:43:34;;;;;;;2.50;2.10;;;;;;;-141.84;46.51;20435.78;5072481;28;20270;-56
2023/06/05 01:46:06;;;;;;;2.43;2.10;;;;;;;-141.84;46.64;20431.72;5071959;28;20254;-56
2023/06/05 01:48:38;;;;;;;2.23;1.97;;;;;;;-141.84;46.47;20417.50;5072018;28;20580;-56
2023/06/05 01:51:07;;;;;;;3.93;1.90;;;;;;;-141.84;46.91;20419.53;5072269;28;20216;-54
2023/06/05 01:53:37;;;;;;;2.50;2.20;;;;;;;-141.84;46.57;20407.34;5072285;28;20236;-55
2023/06/05 01:56:08;;;;;;;3.53;2.53;;;;;;;-141.84;46.13;20464.25;5071985;28;20690;-55
2023/06/05 01:58:36;;;;;;;3.63;2.20;;;;;;;-141.84;46.26;20445.94;5072349;28;20181;-57
2023/06/05 02:01:05;;;;;;;3.93;2.67;;;;;;;-141.84;46.04;20476.44;5071784;28;20212;-58
2023/06/05 02:03:34;;;;;;;2.83;2.40;;;;;;;-141.84;46.49;20433.75;5072130;28;20860;-56
2023/06/05 02:06:03;;;;;;;3.13;2.07;;;;;;;-141.84;46.67;20417.50;5064172;28;20193;-56
2023/06/05 02:08:31;;;;;;;2.20;2.00;;;;;;;-141.84;46.90;20397.16;5065541;28;20672;-55
2023/06/05 02:11:02;;;;;;;2.40;2.20;;;;;;;-141.84;47.02;20403.25;5072058;28;20223;-55
2023/06/05 02:13:33;;;;;;;3.03;2.50;;;;;;;-141.84;47.30;20407.34;5072004;28;20209;-57
2023/06/05 02:16:02;;;;;;;2.50;2.30;;;;;;;-141.84;47.67;20387.00;5071239;28;20185;-56
2023/06/05 02:18:32;;;;;;;2.97;2.57;;;;;;;-141.84;47.81;20395.13;5071166;28;20695;-56
2023/06/05 02:21:00;;;;;;;2.20;2.00;;;;;;;-141.84;47.53;20380.91;5070590;28;20895;-56
2023/06/05 02:23:29;;;;;;;3.23;2.40;;;;;;;-141.84;47.89;20391.06;5070861;28;20657;-57
2023/06/05 02:25:58;;;;;;;4.37;2.63;;;;;;;-141.84;47.96;20395.13;5070577;28;20208;-57
2023/06/05 02:28:28;;;;;;;4.90;2.33;;;;;;;-141.84;47.86;20364.66;5070818;28;20200;-55
2023/06/05 02:30:56;;;;;;;2.70;2.50;;;;;;;-141.84;47.88;20401.22;5070437;28;20209;-57
2023/06/05 02:33:25;;;;;;;2.53;2.33;;;;;;;-141.84;48.30;20358.56;5070665;28;20650;-55
2023/06/05 02:35:53;;;;;;;4.23;2.43;;;;;;;-141.84;48.44;20354.47;5052515;28;20201;-56
2023/06/05 02:38:23;;;;;;;3.37;2.50;;;;;;;-141.84;48.28;20342.28;5052633;28;20292;-59
2023/06/05 02:40:52;;;;;;;4.10;2.80;;;;;;;-141.84;48.41;20342.28;5070289;28;20247;-56
2023/06/05 02:43:21;;;;;;;2.60;2.40;;;;;;;-141.84;49.05;20313.84;5070260;28;20197;-58
2023/06/05 02:45:51;;;;;;;2.57;2.30;;;;;;;-141.84;49.34;20336.19;5070572;28;20197;-56
2023/06/05 02:48:21;;;;;;;3.00;2.70;;;;;;;-141.84;49.52;20305.69;5070404;28;20223;-57
2023/06/05 02:50:50;;;;;;;3.40;2.80;;;;;;;-141.84;49.60;20309.75;5070421;28;20200;-55
2023/06/05 02:53:18;;;;;;;2.83;2.53;;;;;;;-141.84;49.63;20307.72;5070498;28;20631;-56
2023/06/05 02:55:47;;;;;;;4.37;2.77;;;;;;;-141.84;49.52;20330.09;5070131;28;20204;-56
2023/06/05 02:58:17;;;;;;;3.13;2.70;;;;;;;-141.84;49.52;20301.63;5070597;28;20685;-54
2023/06/05 03:00:46;;;;;;;5.30;3.03;;;;;;;-141.84;49.55;20279.28;5035288;28;20588;-57
2023/06/05 03:03:16;;;;;;;3.57;2.70;;;;;;;-141.84;49.79;20305.69;5069971;28;20207;-55
2023/06/05 03:05:45;;;;;;;4.03;2.50;;;;;;;-141.84;49.53;20289.44;5070555;28;20189;-56
2023/06/05 03:08:14;;;;;;;3.37;2.70;;;;;;;-141.84;49.69;20328.06;5070419;28;20629;-56
2023/06/05 03:10:43;;;;;;;3.40;2.80;;;;;;;-141.84;50.00;20277.25;5070283;28;20232;-57
2023/06/05 03:13:11;;;;;;;3.77;3.17;;;;;;;-141.84;50.21;20265.03;5070090;28;20217;-57
2023/06/05 03:15:40;;;;;;;3.73;3.40;;;;;;;-141.84;50.04;20267.09;5069938;28;20228;-57
2023/06/05 03:18:09;;;;;;;4.03;3.50;;;;;;;-141.84;49.89;20305.69;5070327;28;20204;-56
2023/06/05 03:20:38;;;;;;;3.63;3.10;;;;;;;-141.84;49.86;20250.81;5070260;28;20192;-55
2023/06/05 03:23:08;;;;;;;4.90;3.43;;;;;;;-141.84;49.76;20281.31;5070547;28;20200;-56
2023/06/05 03:25:37;;;;;;;4.73;3.10;;;;;;;-141.84;50.00;20303.66;5070607;28;20303;-55
2023/06/05 03:28:05;;;;;;;3.53;3.23;;;;;;;-141.84;50.24;20291.47;5070604;28;20207;-55
2023/06/05 03:30:34;;;;;;;3.50;3.20;;;;;;;-141.84;49.91;20287.41;5070260;28;20204;-54
2023/06/05 03:33:02;;;;;;;5.13;3.40;;;;;;;-141.84;50.12;20273.19;5051853;28;20307;-57
2023/06/05 03:35:32;;;;;;;4.37;3.07;;;;;;;-141.84;50.36;20307.72;5084385;28;20204;-55
2023/06/05 03:38:02;;;;;;;4.43;3.30;;;;;;;-141.84;49.79;20348.38;5085678;28;20205;-55
2023/06/05 03:40:31;;;;;;;3.30;3.00;;;;;;;-141.84;49.66;20321.97;5073672;28;20715;-56
2023/06/05 03:43:00;;;;;;;6.50;3.60;;;;;;;-141.84;49.79;20340.25;5074235;28;20250;-54
2023/06/05 03:45:28;;;;;;;5.03;3.37;;;;;;;-141.84;49.65;20328.06;5073827;28;20281;-55
2023/06/05 03:47:59;;;;;;;4.67;3.30;;;;;;;-141.84;49.41;20334.16;5073923;28;20295;-56
2023/06/05 03:50:31;;;;;;;4.87;3.80;;;;;;;-141.84;49.69;20328.06;5073913;28;20307;-55
2023/06/05 03:53:03;;;;;;;3.90;3.50;;;;;;;-141.84;49.28;20342.28;5073908;28;20209;-55
2023/06/05 03:55:40;;;;;;;4.00;3.43;;;;;;;-141.84;49.36;20324.00;5073790;28;20675;-56
2023/06/05 03:58:13;;;;;;;3.60;3.30;;;;;;;-141.84;49.33;20342.28;5074168;28;20185;-54
2023/06/05 04:00:42;;;;;;;4.03;3.50;;;;;;;-141.84;49.29;20321.97;5073590;28;20609;-56
2023/06/05 04:03:11;;;;;;;3.37;3.07;;;;;;;-141.84;49.26;20340.25;5073578;28;20351;-55
2023/06/05 04:05:41;;;;;;;3.63;3.33;;;;;;;-141.84;49.59;20360.59;5078961;28;20246;-55
2023/06/05 04:08:11;;;;;;;3.50;3.20;;;;;;;-141.84;49.41;20382.94;5082545;28;20205;-54
2023/06/05 04:10:40;;;;;;;3.80;3.40;;;;;;;-141.84;49.63;20350.41;5073274;28;20276;-55
2023/06/05 04:13:09;;;;;;;3.93;3.53;;;;;;;-141.84;49.05;20338.22;5073732;28;20624;-56
2023/06/05 04:15:38;;;;;;;3.50;3.20;;;;;;;-141.84;49.24;20391.06;5074084;28;20228;-58
2023/06/05 04:18:06;;;;;;;4.40;3.40;;;;;;;-141.84;49.55;20411.41;5074099;28;20212;-57
2023/06/05 04:20:35;;;;;;;3.70;3.40;;;;;;;-141.84;48.81;20395.13;5074166;28;20694;-56
2023/06/05 04:23:03;;;;;;;3.87;3.47;;;;;;;-141.84;48.55;20421.56;5074088;28;20284;-56
2023/06/05 04:25:33;;;;;;;6.07;3.97;;;;;;;-141.84;48.56;20435.78;5073711;28;20247;-57
2023/06/05 04:28:03;;;;;;;4.23;3.83;;;;;;;-141.84;49.29;20433.75;5073809;28;20706;-56
2023/06/05 04:30:31;;;;;;;5.20;3.30;;;;;;;-141.84;49.76;20445.94;5073248;28;20566;-56
2023/06/05 04:33:01;;;;;;;4.00;3.40;;;;;;;-141.84;49.28;20464.25;5053215;28;20303;-56
2023/06/05 04:35:32;;;;;;;3.63;3.33;;;;;;;-141.84;48.92;20496.78;5071646;28;20537;-57
2023/06/05 04:38:01;;;;;;;3.73;3.43;;;;;;;-141.84;48.97;20513.03;5073401;28;20219;-58
2023/06/05 04:40:31;;;;;;;5.93;3.80;;;;;;;-141.84;48.93;20519.13;5072969;28;20250;-57
2023/06/05 04:43:01;;;;;;;4.97;3.80;;;;;;;-141.84;48.71;20511.00;5073275;28;20288;-56
2023/06/05 04:45:29;;;;;;;5.77;3.67;;;;;;;-141.84;47.99;20545.56;5073271;28;20688;-56
2023/06/05 04:47:58;;;;;;;3.70;3.40;;;;;;;-141.84;47.41;20610.59;5073386;28;20200;-57
2023/06/05 04:50:29;;;;;;;3.58;2.95;;;;;;;-141.84;45.70;20891.13;5073437;28;20205;-58
2023/06/05 04:52:58;;;;;;;4.43;3.42;;;;;;;-141.84;41.23;21265.22;5073308;28;20237;-58
2023/06/05 04:55:27;;;;;;;4.20;3.42;;;16.30;99.90;;;-141.84;37.09;21653.56;5073851;28;20200;-58
2023/06/05 04:58:00;;;;;;;5.38;3.60;;;;;;;-141.84;34.98;22015.50;5073201;28;20245;-57
2023/06/05 05:00:30;;;;;;;4.78;3.45;;;;;;;-141.84;33.02;22399.84;5072901;28;20604;-58
2023/06/05 05:02:59;;;;;;;5.32;3.67;;;;;;;-141.84;31.60;22615.44;5072322;28;20201;-58
2023/06/05 05:05:28;;;;;;;3.85;3.55;;;;;;;-141.84;29.99;22820.84;5072893;28;20200;-57
2023/06/05 05:07:56;;;;;;;7.97;4.43;;;;;;;-141.84;29.32;22995.78;5072575;28;20288;-57
2023/06/05 05:10:30;;;;;;;4.13;3.40;;;;;;;-141.84;28.88;23091.38;5072999;28;20220;-57
2023/06/05 05:13:00;;;;;;;4.00;3.60;;;;;;;-141.84;28.69;23107.66;5072266;28;20232;-57
2023/06/05 05:15:31;;;;;;;3.58;3.08;;;;;;;-141.84;28.89;23260.22;5072606;28;20188;-58
2023/06/05 05:18:03;;;;;;;6.10;4.40;;;;;;;-141.84;28.83;23349.72;5072862;28;20217;-58
2023/06/05 05:20:34;;;;;;;4.82;3.80;;;;;;;-141.84;28.48;23331.41;5072374;28;20957;-58
2023/06/05 05:23:02;;;;;;;5.28;4.40;;;;;;;-141.84;28.16;23313.09;5071951;28;20185;-58
2023/06/05 05:25:31;;;;;;;5.05;3.50;;;;;;;-141.84;28.51;23302.94;5071939;28;20204;-59
2023/06/05 05:28:00;;;;;;;5.35;3.03;;;;;;;-141.84;28.93;23097.47;5071592;28;20617;-57
2023/06/05 05:30:30;;;;;;;4.72;3.60;;;;;;;-141.84;28.83;23164.59;5071558;28;20300;-59
2023/06/05 05:32:59;;;;;;;5.13;3.05;;;;;;;-141.84;29.09;23030.34;5070528;28;20271;-58
2023/06/05 05:35:28;;;;;;;3.50;3.20;;;;;;;-141.84;29.40;22841.19;5056787;28;20754;-58
2023/06/05 05:37:56;;;;;;;3.83;3.47;;;;;;;-141.84;30.71;22397.81;5058833;28;20236;-58
2023/06/05 05:40:25;;;;;;;4.45;3.90;;;;;;;-141.84;33.14;22011.44;5071366;28;20262;-58
2023/06/05 05:42:53;;;;;;;5.18;4.10;;;;;;;-141.84;34.46;21848.75;5070698;28;20664;-58
2023/06/05 05:45:22;;;;;;;5.30;4.18;;;;;;;-141.84;35.87;21669.81;5071246;28;20274;-57
2023/06/05 05:47:52;;;;;;;3.70;3.40;;;;;;;-141.84;36.12;21671.84;5070965;28;20631;-59
2023/06/05 05:50:20;;;;;;;3.30;2.92;;;;;;;-141.84;36.66;21645.44;5071331;28;20200;-58
2023/06/05 05:52:50;;;;;;;6.43;3.60;;;;;;;-141.84;36.92;21566.13;5070805;28;20660;-58
2023/06/05 05:55:19;;;;;;;4.70;3.10;;;;;;;-141.84;36.67;21547.81;5070601;28;20213;-59
2023/06/05 05:57:47;;;;;;;3.50;3.20;;;;;;;-141.84;37.16;21494.97;5069774;28;20288;-58
2023/06/05 06:00:17;;;;;;;5.72;3.28;;;;;;;-141.84;37.32;21503.09;5069934;28;20636;-59
2023/06/05 06:02:47;;;;;;;3.45;3.15;;;;;;;-141.84;37.88;21497.00;5070769;28;20270;-58
2023/06/05 06:05:17;;;;;;;4.75;3.17;;;;;;;-141.84;37.87;21519.34;5071069;28;20184;-58
2023/06/05 06:07:45;;;;;;;4.47;3.20;;;;;;;-141.84;37.83;21484.78;5071512;28;20242;-57
2023/06/05 06:10:15;;;;;;;3.78;2.75;;;;;;;-141.84;37.93;21531.56;5071046;28;20316;-58
2023/06/05 06:12:44;;;;;;;3.97;2.78;;;;;;;-141.84;37.88;21527.50;5071315;28;20201;-58
2023/06/05 06:15:13;;;;;;;4.05;3.53;;;;;;;-141.84;37.81;21533.59;5070439;28;20271;-59
2023/06/05 06:17:41;;;;;;;10.73;3.03;;;;;;;-141.84;37.88;21501.06;5070615;28;20668;-59
2023/06/05 06:20:12;;;;;;;4.40;2.67;;;;;;;-141.84;38.53;21444.13;5070294;28;20207;-57
2023/06/05 06:22:43;;;;;;;2.90;2.60;;;;;;;-141.84;38.77;21419.72;5070738;28;20185;-57
2023/06/05 06:25:14;;;;;;;2.97;2.67;;;;;;;-141.84;38.94;21421.75;5070742;28;20185;-59
2023/06/05 06:27:43;;;;;;;4.82;2.58;;;;;;;-141.84;38.58;21488.88;5070336;28;20205;-57
2023/06/05 06:30:12;;;;;;;2.95;2.70;;;;;;;-141.84;38.32;21509.19;5070562;28;20196;-59
2023/06/05 06:32:41;;;;;;;4.15;2.70;;;;;;;-141.84;38.19;21541.72;5070253;28;20212;-57
2023/06/05 06:35:09;;;;;;;3.08;2.63;;;;;;;-141.84;37.39;21541.72;5070465;28;20209;-58
2023/06/05 06:37:38;;;;;;;4.85;2.80;;;;;;;-141.84;37.46;21570.19;5070685;28;20742;-58
2023/06/05 06:40:10;;;;;;;3.20;2.90;;;;;;;-141.84;37.88;21574.25;5070177;28;20264;-57
2023/06/05 06:42:39;;;;;;;4.45;2.72;;;;;;;-141.84;37.79;21558.00;5070087;28;20235;-69
2023/06/05 06:45:09;;;;;;;4.60;3.10;;;;;;;-141.84;38.09;21521.41;5070298;28;20205;-70
2023/06/05 06:47:38;;;;;;;4.72;2.88;;;;;;;-141.84;38.21;21560.03;5068960;28;20222;-70
2023/06/05 06:50:07;;;;;;;4.88;3.10;;;;;;;-141.84;38.28;21621.03;5070062;28;20201;-70
2023/06/05 06:52:35;;;;;;;6.30;2.90;;;;;;;-141.84;38.39;21625.09;5070108;28;20262;-70
2023/06/05 06:55:05;;;;;;;4.68;2.80;;;;;;;-141.84;38.65;21623.06;5069182;28;20370;-71
2023/06/05 06:57:34;;;;;;;5.50;3.25;;;;;;;-141.84;38.25;21545.78;5070290;28;20566;-70
2023/06/05 07:00:12;;;;;;;5.07;2.80;;;;;;;-141.84;38.82;21533.59;5070126;28;20217;-70
2023/06/05 07:02:43;;;;;;;3.00;2.70;;;;;;;-141.84;39.13;21470.56;5070662;28;20250;-70
2023/06/05 07:05:13;;;;;;;5.13;3.03;;;;;;;-141.84;39.31;21482.75;5070621;28;20196;-70
2023/06/05 07:07:41;;;;;;;5.35;2.83;;;;;;;-141.84;39.27;21566.13;5073434;28;20228;-69
2023/06/05 07:10:10;;;;;;;3.60;2.90;;;;;;;-141.84;38.53;21558.00;5074817;28;20228;-70
2023/06/05 07:12:40;;;;;;;5.20;3.15;;;;;;;-141.84;38.66;21517.31;5075384;28;20619;-70
2023/06/05 07:15:09;;;;;;;4.05;2.78;;;;;;;-141.84;38.67;21566.13;5074259;28;20220;-69
2023/06/05 07:17:38;;;;;;;3.63;2.90;;;;;;;-141.84;38.71;21621.03;5074725;28;20203;-70
2023/06/05 07:20:09;;;;;;;6.03;2.75;;;;;;;-141.84;38.81;21655.59;5073885;28;20664;-70
2023/06/05 07:22:37;;;;;;;4.63;2.88;;;;;;;-141.84;39.10;21684.06;5074157;28;20201;-69
2023/06/05 07:25:06;;;;;;;2.92;2.58;;;;;;;-141.84;38.73;21793.84;5074233;28;20251;-69
2023/06/05 07:27:35;;;;;;;4.47;2.70;;;;;;;-141.84;38.54;21791.81;5073766;28;20728;-69
2023/06/05 07:30:06;;;;;;;4.78;2.50;;;;;;;-141.84;38.63;21777.59;5073675;28;20292;-70
2023/06/05 07:32:35;;;;;;;2.75;2.50;;;;;;;-141.84;38.49;21777.59;5073748;28;20292;-69
2023/06/05 07:35:04;;;;;;;3.70;2.50;;;;;;;-141.84;38.27;21759.28;5062298;28;20275;-69
2023/06/05 07:37:32;;;;;;;2.83;2.50;;;;;;;-141.84;38.20;21781.66;5056816;28;20200;-70
2023/06/05 07:40:00;;;;;;;2.72;2.28;;;;;;;-141.84;37.40;21793.84;5073653;28;20279;-69
2023/06/05 07:42:29;;;;;;;2.70;2.28;;;;;;;-141.84;37.52;21850.78;5073823;28;20270;-69
2023/06/05 07:44:57;;;;;;;3.25;2.08;;;;;;;-141.84;36.99;21840.63;5073777;28;20743;-71
2023/06/05 07:47:27;;;;;;;4.10;2.58;;;;;;;-141.84;36.12;21816.22;5080641;28;20231;-70
2023/06/05 07:50:03;;;;;;;8.95;2.65;;;;;;;-141.84;35.94;21915.88;5093757;28;20199;-69
2023/06/05 07:52:32;;;;;;;3.53;2.38;;;;;;;-141.84;36.01;21960.59;5094168;28;20624;-71
2023/06/05 07:55:00;;;;;;;3.03;2.38;;;;;;;-141.84;36.47;21993.13;5093602;28;20255;-69
2023/06/05 07:57:29;;;;;;;3.15;2.13;;;;;;;-141.84;36.07;22013.47;5093903;28;20257;-70
2023/06/05 07:59:57;;;;;;;6.10;2.70;;;;;;;-141.84;34.51;22062.28;5093621;28;20265;-70
2023/06/05 08:02:27;;;;;;;3.00;2.42;;;;;;;-141.84;34.67;22027.72;5077822;28;20703;-70
2023/06/05 08:04:56;;;;;;;3.92;2.63;;;;;;;-141.84;35.33;21987.03;5073187;28;20197;-70
2023/06/05 08:07:24;;;;;;;4.63;2.60;;;;;;;-141.84;35.10;21956.53;5087852;28;20288;-70
2023/06/05 08:09:53;;;;;;;2.33;2.13;;;;;;;-141.84;35.07;22009.41;5073454;28;20204;-70
2023/06/05 08:12:22;;;;;;;6.38;2.72;;;;;;;-141.84;35.44;21999.25;5073483;28;20231;-69
2023/06/05 08:14:50;;;;;;;4.53;2.60;;;;;;;-141.84;35.08;22058.22;5072532;28;20208;-70
2023/06/05 08:17:19;;;;;;;4.43;2.30;;;;;;;-141.84;35.24;22009.41;5073167;28;20295;-69
2023/06/05 08:19:48;;;;;;;2.65;2.17;;;;;;;-141.84;35.12;22052.09;5071700;28;20238;-69
2023/06/05 08:22:17;;;;;;;3.97;2.20;;;;;;;-141.84;34.94;22058.22;5072976;28;20211;-70
2023/06/05 08:24:48;;;;;;;3.92;2.67;;;;;;;-141.84;35.33;21995.16;5072523;28;20205;-70
2023/06/05 08:27:17;;;;;;;4.13;2.53;;;;;;;-141.84;35.08;22074.47;5072548;28;20223;-70
2023/06/05 08:29:46;;;;;;;4.63;2.47;;;;;;;-141.84;34.25;22208.69;5072872;28;20292;-71
2023/06/05 08:32:14;;;;;;;4.60;2.40;;;;;;;-141.84;34.04;22277.84;5072685;28;20306;-69
2023/06/05 08:34:42;;;;;;;4.40;2.08;;;;;;;-141.84;33.89;22359.19;5061463;28;20257;-70
2023/06/05 08:37:12;;;;;;;4.00;2.22;;;;;;;-141.84;32.14;22371.38;5052447;28;20399;-69
2023/06/05 08:39:41;;;;;;;3.15;2.10;;;;;;;-141.84;32.70;22314.44;5052633;28;20208;-70
2023/06/05 08:42:12;;;;;;;2.25;1.92;;;;;;;-141.84;32.74;22328.69;5052603;28;20197;-70
2023/06/05 08:44:41;;;;;;;4.03;1.90;;;;;;;-141.84;32.34;22263.59;5052766;28;20248;-69
2023/06/05 08:47:30;;;;;;;3.40;2.00;;;;;;;-141.84;33.31;22308.34;5052286;28;20685;-70
2023/06/05 08:50:03;;;;;;;3.17;2.00;;;;;;;-141.84;33.39;22314.44;5052632;28;20273;-69
2023/06/05 08:52:35;;;;;;;3.97;1.80;;;;;;;-141.84;33.59;22310.38;5052860;28;20186;-70
2023/06/05 08:55:05;;;;;;;2.78;2.00;;;;;;;-141.84;33.04;22336.81;5052623;28;20291;-70
2023/06/05 08:57:36;;;;;;;3.60;2.05;;;;;;;-141.84;32.23;22298.16;5052036;28;20634;-69
2023/06/05 09:00:07;;;;;;;3.08;1.70;;;;;;;-141.84;32.39;22279.88;5052398;28;20186;-69
2023/06/05 09:02:37;;;;;;;3.83;2.10;;;;;;;-141.84;32.50;22202.59;5059525;28;20570;-70
2023/06/05 09:05:06;;;;;;;4.05;2.38;;;;;;;-141.84;32.79;22184.28;5051884;28;20209;-69
2023/06/05 09:07:37;;;;;;;2.83;1.95;;;;;;;-141.84;33.04;22178.19;5065810;28;20315;-71
2023/06/05 09:10:06;;;;;;;3.85;1.77;;;;;;;-141.84;31.75;22184.28;5052051;28;20182;-69
2023/06/05 09:12:54;;;;;;;2.97;2.03;;;;;;;-141.84;31.50;22204.63;5051764;28;20201;-70
2023/06/05 09:15:24;;;;;;;5.00;2.00;;;;;;;-141.84;31.98;22184.28;5051414;28;20279;-69
2023/06/05 09:18:11;;;;;;;3.10;1.70;;;;;;;-141.84;32.17;22172.09;5051562;28;20574;-70
2023/06/05 09:20:42;;;;;;;2.63;1.77;;;;;;;-141.84;31.88;22159.88;5051873;28;20189;-70
2023/06/05 09:23:26;;;;;;;2.42;2.05;;;;;;;-141.84;31.76;22218.84;5051555;28;20212;-69
2023/06/05 09:25:58;;;;;;;3.30;2.10;;;;;;;-141.84;32.06;22200.56;5051532;28;20648;-71
2023/06/05 09:28:27;;;;;;;3.28;1.90;;;;;;;-141.84;32.11;22188.34;5051677;28;20198;-69
2023/06/05 09:30:59;;;;;;;2.17;1.88;;;;;;;-141.84;32.42;22172.09;5053067;28;20209;-70
2023/06/05 09:33:30;;;;;;;2.67;2.05;;;;;;;-141.84;32.12;22196.50;5071039;28;20259;-70
2023/06/05 09:36:06;;;;;;;3.33;1.90;;;;;;;-141.84;32.55;22159.88;5071546;28;20204;-68
2023/06/05 09:38:38;;;;;;;2.88;1.80;;;;;;;-141.84;32.90;22151.75;5067157;28;20708;-69
2023/06/05 09:41:07;;;;;;;3.90;2.20;;;;;;;-141.84;32.63;22141.59;5051347;28;20268;-69
2023/06/05 09:43:37;;;;;;;3.47;2.00;;;;;;;-141.84;32.78;22155.81;5051115;28;20279;-70
2023/06/05 09:46:10;;;;;;;4.95;2.35;;;;;;;-141.84;32.77;22202.59;5051271;28;20251;-69
2023/06/05 09:48:40;;;;;;;2.10;1.90;;;;;;;-141.84;32.48;22192.44;5051585;28;20624;-69
2023/06/05 09:51:20;;;;;;;2.10;1.77;;;;;;;-141.84;32.58;22161.91;5109595;27;20636;-70
2023/06/05 09:53:51;;;;;;;2.10;1.90;;;;;;;-141.84;32.39;22231.06;5109126;28;20282;-70
2023/06/05 09:56:22;;;;;;;2.97;2.33;;;;;;;-141.84;31.52;22277.84;5089561;28;20622;-69
2023/06/05 09:58:52;;;;;;;2.80;1.90;;;;;;;-141.84;31.63;22328.69;5108456;28;20464;-71
2023/06/05 10:01:24;;;;;;;3.20;1.95;;;;;;;-141.84;31.44;22393.75;5107923;28;20217;-69
2023/06/05 10:03:57;;;;;;;2.50;2.30;;;;;;;-141.84;30.71;22460.88;5108446;28;20203;-69
2023/06/05 10:06:28;;;;;;;4.60;1.95;;;;;;;-141.84;30.67;22462.91;5108252;28;20183;-71
2023/06/05 10:08:57;;;;;;;3.70;2.00;;;;;;;-141.84;30.51;22527.97;5108766;28;20184;-69
2023/06/05 10:11:27;;;;;;;2.10;1.90;;;;;;;-141.84;30.79;22489.34;5107114;28;20223;-70
2023/06/05 10:13:59;;;;;;;1.77;1.67;;;;;;;-141.84;30.39;22521.88;5087924;28;20279;-70
2023/06/05 10:16:28;;;;;;;7.97;2.20;;;;;;;-141.84;30.16;22456.81;5088344;28;20280;-70
2023/06/05 10:18:59;;;;;;;2.85;2.08;;;;;;;-141.84;30.26;22499.50;5087452;28;20211;-69
2023/06/05 10:21:30;;;;;;;3.25;1.83;;;;;;;-141.84;30.04;22501.53;5107923;28;20192;-69
2023/06/05 10:24:03;;;;;;;2.10;1.90;;;;;;;-141.84;30.05;22511.72;5108011;28;20221;-68
2023/06/05 10:27:02;;;;;;;5.35;2.20;;;;;;;-141.84;29.98;22530.00;5108107;28;20195;-70
2023/06/05 10:29:45;;;;;;;2.85;1.90;;;;;;;-141.84;29.85;22570.69;5107904;28;20352;-69
2023/06/05 10:32:24;;;;;;;2.22;1.90;;;;;;;-141.84;29.66;22660.19;5068276;28;20200;-69
2023/06/05 10:35:05;;;;;;;2.30;2.10;;;;;;;-141.84;29.20;22747.63;5097441;28;20188;-69
2023/06/05 10:37:45;;;;;;;2.33;1.80;;;;;;;-141.84;29.42;22794.41;5107899;28;20202;-70
2023/06/05 10:40:18;;;;;;;3.22;1.85;;;;;;;-141.84;28.91;22833.06;5107557;28;20685;-69
2023/06/05 10:42:46;;;;;;;4.63;2.20;;;;;;;-141.84;28.94;22932.72;5107670;28;20226;-70
2023/06/05 10:45:30;;;;;;;2.47;1.90;;;;;;;-141.84;28.56;22898.16;5108591;28;20239;-69
2023/06/05 10:47:58;;;;;;;2.20;2.00;;;;;;;-141.84;28.69;22871.72;5108259;28;20184;-70
2023/06/05 10:50:30;;;;;;;2.15;1.95;;;;;;;-141.84;28.86;22833.06;5107899;28;20261;-70
2023/06/05 10:53:01;;;;;;;2.50;2.30;;;;;;;-141.84;28.92;22851.38;5107718;28;20191;-69
2023/06/05 10:55:43;;;;;;;2.85;2.05;;;;;;;-141.84;29.07;22765.94;5107546;28;20298;-72
2023/06/05 10:58:13;;;;;;;2.53;2.20;;;;;;;-141.84;29.45;22623.56;5107899;28;20271;-69
2023/06/05 11:01:18;;;;;;;4.40;2.45;;;;;;;-141.84;29.56;22686.63;5104953;28;20187;-69
2023/06/05 11:04:00;;;;;;;2.25;1.90;;;;;;;-141.84;29.99;22664.25;5089070;28;20702;-70
2023/06/05 11:06:29;;;;;;;3.22;2.40;;;;;;;-141.84;29.69;22757.81;5094069;28;20279;-68
2023/06/05 11:09:13;;;;;;;4.00;2.22;;;;;;;-141.84;29.68;22782.22;5081926;28;20200;-69
2023/06/05 11:11:59;;;;;;;3.67;2.10;;;;;;;-141.84;29.24;22845.25;5073635;28;20204;-69
2023/06/05 11:14:46;;;;;;;2.40;2.08;;;;;;;-141.84;29.42;22896.13;5073523;28;20188;-69
2023/06/05 11:17:31;;;;;;;2.67;1.90;;;;;;;-141.84;29.18;22944.94;5073517;28;20246;-68
2023/06/05 11:20:00;;;;;;;3.97;2.20;;;;;;;-141.84;29.14;22997.81;5082426;28;20180;-69
2023/06/05 11:22:29;;;;;;;2.95;2.05;;;;;;;-141.84;29.07;23028.31;5094199;28;20318;-70
2023/06/05 11:25:27;;;;;;;3.50;2.15;;;;;;;-141.84;28.94;23026.28;5093575;28;20290;-69
2023/06/05 11:27:58;;;;;;;3.40;2.00;;;;;;;-141.84;29.28;22985.59;5094118;28;20204;-70
2023/06/05 11:30:31;;;;;;;3.42;2.40;;;;;;;-141.84;29.26;22867.63;5093310;28;20235;-69
2023/06/05 11:33:19;;;;;;;2.55;2.33;;;;;;;-141.84;29.56;22835.09;5043376;28;20200;-70